Time;durP1;ratioP1;P1;durP2;ratioP2;P2;SDS_P1;SDS_P2;PMS_P1;PMS_P2;Temp;Humidity;BMP_temperature;BMP_pressure;BME280_temperature;BME280_humidity;BME280_pressure;Samples;Min_cycle;Max_cycle;Signal;HPM_P1;HPM_P2
2024/02/21 00:01:32;;;;;;;1.40;0.65;;;;;;;;;;10576094;27;20749;-75
2024/02/21 00:06:36;;;;;;;1.58;0.65;;;;;;;;;;10559074;27;20043;-75
2024/02/21 00:11:38;;;;;;;1.98;0.65;;;;;;;;;;10571252;27;20640;-75
2024/02/21 00:16:41;;;;;;;1.40;0.85;;;;;;;;;;10560190;27;20123;-74
2024/02/21 00:21:45;;;;;;;1.10;0.50;;;;;;;;;;10563478;27;20151;-74
2024/02/21 00:26:48;;;;;;;1.83;1.00;;;;;;;;;;10569796;27;20126;-74
2024/02/21 00:31:50;;;;;;;1.70;0.70;;;;;;;;;;10572285;27;20085;-74
2024/02/21 00:36:54;;;;;;;2.90;0.82;;;;;;;;;;10566531;27;20040;-74
2024/02/21 00:41:57;;;;;;;2.45;0.77;;;;;;;;;;10572927;27;20063;-74
2024/02/21 00:47:00;;;;;;;10.05;1.30;;;;;;;;;;10571405;27;20063;-74
2024/02/21 00:52:04;;;;;;;3.78;1.92;;;;;;;;;;10568977;27;20100;-74
2024/02/21 00:57:07;;;;;;;1.63;0.95;;;;;;;;;;10563864;27;20512;-74
2024/02/21 01:02:09;;;;;;;1.70;0.40;;;;;;;;;;10566167;27;20114;-75
2024/02/21 01:07:13;;;;;;;2.92;1.17;;;;;;;;;;10563506;27;20044;-75
2024/02/21 01:12:16;;;;;;;;;;;;;;;;;;10561505;27;20453;-74
2024/02/21 01:17:18;;;;;;;1.10;0.90;;;;;;;;;;10557986;28;20014;-74
2024/02/21 01:22:23;;;;;;;3.60;1.63;;;;;;;;;;10568333;27;20035;-74
2024/02/21 01:27:26;;;;;;;2.85;0.85;;;;;;;;;;10565001;27;20040;-74
2024/02/21 01:32:29;;;;;;;4.30;0.95;;;;;;;;;;10568968;27;20047;-74
2024/02/21 01:37:33;;;;;;;6.95;1.35;;;;;;;;;;10559125;27;20129;-74
2024/02/21 01:42:36;;;;;;;;;;;;;;;;;;10558141;28;20047;-75
2024/02/21 01:47:38;;;;;;;2.42;0.88;;;;;;;;;;10565535;27;19991;-75
2024/02/21 01:52:44;;;;;;;4.65;1.83;;;;;;;;;;10567773;27;20162;-76
2024/02/21 01:57:47;;;;;;;5.00;1.20;;;;;;;;;;10559092;28;20048;-75
2024/02/21 02:02:50;;;;;;;1.60;0.55;;;;;;;;;;10569379;27;20670;-75
2024/02/21 02:07:54;;;;;;;3.78;1.05;;;;;;;;;;10560128;27;20374;-74
2024/02/21 02:12:57;;;;;;;3.20;0.77;;;;;;;;;;10577517;27;20042;-75
2024/02/21 02:18:00;;;;;;;3.08;1.20;;;;;;;;;;10562517;28;20134;-77
2024/02/21 02:23:06;;;;;;;2.22;0.68;;;;;;;;;;10562585;28;20071;-75
2024/02/21 02:28:10;;;;;;;1.83;1.17;;;;;;;;;;10565660;28;20086;-75
2024/02/21 02:33:13;;;;;;;0.95;0.77;;;;;;;;;;10560636;28;20039;-75
2024/02/21 02:38:16;;;;;;;4.77;0.80;;;;;;;;;;10573291;28;20044;-74
2024/02/21 02:43:20;;;;;;;2.28;1.20;;;;;;;;;;10561632;28;20092;-75
2024/02/21 02:48:23;;;;;;;2.60;1.00;;;;;;;;;;10562792;28;20425;-75
2024/02/21 02:53:27;;;;;;;0.80;0.65;;;;;;;;;;10568357;28;20063;-75
2024/02/21 02:58:31;;;;;;;3.17;0.73;;;;;;;;;;10559004;28;20071;-75
2024/02/21 03:03:33;;;;;;;0.47;0.32;;;;;;;;;;10566621;28;20050;-74
2024/02/21 03:08:36;;;;;;;1.77;1.10;;;;;;;;;;10563669;28;20098;-75
2024/02/21 03:13:40;;;;;;;4.03;0.88;;;;;;;;;;10561584;28;20074;-75
2024/02/21 03:18:43;;;;;;;0.20;0.13;;;;;;;;;;10556882;27;20051;-75
2024/02/21 03:23:47;;;;;;;1.17;0.90;;;;;;;;;;10570049;27;20075;-74
2024/02/21 03:28:51;;;;;;;0.70;0.43;;;;;;;;;;10572864;27;20131;-74
2024/02/21 03:33:54;;;;;;;;;;;;;;;;;;10554370;27;20437;-74
2024/02/21 03:38:57;;;;;;;1.58;0.70;;;;;;;;;;10578942;27;20339;-74
2024/02/21 03:44:01;;;;;;;1.63;0.85;;;;;;;;;;10562657;27;20563;-75
2024/02/21 03:49:04;;;;;;;1.05;0.70;;;;;;;;;;10572986;27;20043;-74
2024/02/21 03:54:07;;;;;;;1.80;0.80;;;;;;;;;;10556403;27;20061;-74
2024/02/21 03:59:11;;;;;;;2.78;0.70;;;;;;;;;;10573047;27;20461;-75
2024/02/21 04:04:13;;;;;;;;;;;;;;;;;;10571440;27;20480;-75
2024/02/21 04:09:16;;;;;;;1.73;0.47;;;;;;;;;;10571406;27;20015;-73
2024/02/21 04:14:20;;;;;;;1.83;0.77;;;;;;;;;;10572547;27;20408;-74
2024/02/21 04:19:23;;;;;;;1.08;0.30;;;;;;;;;;10563190;27;20076;-75
2024/02/21 04:24:26;;;;;;;1.70;0.47;;;;;;;;;;10552481;27;20100;-74
2024/02/21 04:29:30;;;;;;;2.80;0.57;;;;;;;;;;10562507;27;20438;-74
2024/02/21 04:34:33;;;;;;;0.80;0.40;;;;;;;;;;10562844;27;20456;-74
2024/02/21 04:39:36;;;;;;;2.13;0.70;;;;;;;;;;10569106;27;20496;-73
2024/02/21 04:44:40;;;;;;;1.70;0.88;;;;;;;;;;10562959;27;20123;-74
2024/02/21 04:49:43;;;;;;;0.30;0.30;;;;;;;;;;10567168;27;20393;-74
2024/02/21 04:54:46;;;;;;;0.65;0.65;;;;;;;;;;10569750;27;20109;-74
2024/02/21 04:59:50;;;;;;;0.10;0.05;;;;;;;;;;10566746;27;20044;-75
2024/02/21 05:04:53;;;;;;;0.40;0.40;;;;;;;;;;10566043;27;20082;-75
2024/02/21 05:09:56;;;;;;;0.63;0.50;;;;;;;;;;10572004;27;20104;-75
2024/02/21 05:14:59;;;;;;;1.10;0.68;;;;;;;;;;10567053;27;20035;-75
2024/02/21 05:20:02;;;;;;;1.55;0.52;;;;;;;;;;10577530;27;20078;-72
2024/02/21 05:25:06;;;;;;;1.95;0.52;;;;;;;;;;10563642;27;20044;-75
2024/02/21 05:30:10;;;;;;;0.87;0.67;;;;;;;;;;10571614;27;20114;-74
2024/02/21 05:35:13;;;;;;;0.05;0.05;;;;;;;;;;10565961;27;20135;-74
2024/02/21 05:40:16;;;;;;;0.55;0.40;;;;;;;;;;10565873;27;20047;-74
2024/02/21 05:45:20;;;;;;;1.98;1.00;;;;;;;;;;10564037;27;20084;-76
2024/02/21 05:50:23;;;;;;;;;;;;;;;;;;10568084;27;20035;-75
2024/02/21 05:55:27;;;;;;;0.55;0.55;;;;;;;;;;10562896;27;19974;-74
2024/02/21 06:00:31;;;;;;;0.95;0.75;;;;;;;;;;10562206;27;20046;-75
2024/02/21 06:05:34;;;;;;;;;;;;;;;;;;10558366;27;20046;-74
2024/02/21 06:10:37;;;;;;;3.80;0.95;;;;;;;;;;10562206;28;19919;-74
2024/02/21 06:15:41;;;;;;;4.55;0.80;;;;;;;;;;10561055;27;20043;-74
2024/02/21 06:20:44;;;;;;;;;;;;;;;;;;10560063;27;20065;-74
2024/02/21 06:25:47;;;;;;;1.17;0.60;;;;;;;;;;10570734;28;20007;-74
2024/02/21 06:30:52;;;;;;;1.15;0.60;;;;;;;;;;10559966;28;20036;-74
2024/02/21 06:35:55;;;;;;;0.80;0.63;;;;;;;;;;10570554;28;20071;-74
2024/02/21 06:41:00;;;;;;;2.45;0.52;;;;;;;;;;10570802;28;20043;-74
2024/02/21 06:46:04;;;;;;;2.78;1.00;;;;;;;;;;10547686;28;20044;-75
2024/02/21 06:51:07;;;;;;;3.45;0.65;;;;;;;;;;10567837;28;20040;-77
2024/02/21 06:56:11;;;;;;;0.90;0.77;;;;;;;;;;10566511;27;20121;-74
2024/02/21 07:01:15;;;;;;;2.42;1.00;;;;;;;;;;10577540;27;20040;-75
2024/02/21 07:06:18;;;;;;;4.30;0.98;;;;;;;;;;10567822;27;20050;-75
2024/02/21 07:11:21;;;;;;;2.35;0.95;;;;;;;;;;10573569;27;20527;-75
2024/02/21 07:16:26;;;;;;;1.85;0.82;;;;;;;;;;10571778;27;20062;-74
2024/02/21 07:21:29;;;;;;;2.83;0.95;;;;;;;;;;10572340;27;20582;-75
2024/02/21 07:26:32;;;;;;;2.38;1.00;;;;;;;;;;10567844;27;20434;-76
2024/02/21 07:31:40;;;;;;;3.53;0.98;;;;;;;;;;10575767;27;20054;-74
2024/02/21 07:36:44;;;;;;;0.38;0.35;;;;;;;;;;10567500;27;20044;-75
2024/02/21 07:41:49;;;;;;;1.70;0.50;;;;;;;;;;10574136;27;20059;-74
2024/02/21 07:46:53;;;;;;;0.82;0.60;;;;;;;;;;10573690;27;20094;-75
2024/02/21 07:51:55;;;;;;;1.70;0.90;;;;;;;;;;10565397;27;20063;-75
2024/02/21 07:56:58;;;;;;;1.77;0.90;;;;;;;;;;10568099;27;20183;-75
2024/02/21 08:02:06;;;;;;;3.80;1.23;;;;;;;;;;10566241;27;20077;-75
2024/02/21 08:07:09;;;;;;;2.10;1.27;;;;;;;;;;10558379;27;20048;-75
2024/02/21 08:12:12;;;;;;;2.30;1.02;;;;;;;;;;10574494;27;20080;-75
2024/02/21 08:17:16;;;;;;;1.35;1.17;;;;;;;;;;10564112;28;20465;-75
2024/02/21 08:22:20;;;;;;;1.75;1.20;;;;;;;;;;10564961;27;20036;-76
2024/02/21 08:27:25;;;;;;;2.50;1.25;;;;;;;;;;10572837;27;20040;-75
2024/02/21 08:32:31;;;;;;;1.40;1.30;;;;;;;;;;10564702;27;20035;-76
2024/02/21 08:37:33;;;;;;;0.98;0.90;;;;;;;;;;10568891;27;20062;-75
2024/02/21 08:42:36;;;;;;;2.58;1.40;;;;;;;;;;10572206;27;20085;-74
2024/02/21 08:47:39;;;;;;;;;;;;;;;;;;10566948;27;20043;-74
2024/02/21 08:52:43;;;;;;;1.27;1.10;;;;;;;;;;10571755;27;19919;-76
2024/02/21 08:57:46;;;;;;;4.03;1.20;;;;;;;;;;10566729;28;20044;-77
2024/02/21 09:02:48;;;;;;;;;;;;;;;;;;10569543;27;20110;-77
2024/02/21 09:07:53;;;;;;;1.08;0.98;;;;;;;;;;10565387;27;20380;-74
2024/02/21 09:12:56;;;;;;;1.38;1.27;;;;;;;;;;10575234;27;20036;-75
2024/02/21 09:17:58;;;;;;;4.68;1.20;;;;;;;;;;10567326;27;20434;-76
2024/02/21 09:23:03;;;;;;;4.65;1.48;;;;;;;;;;10570805;27;20084;-76
2024/02/21 09:28:07;;;;;;;2.92;1.20;;;;;;;;;;10545757;27;20043;-76
2024/02/21 09:33:09;;;;;;;4.78;1.25;;;;;;;;;;10557919;27;20036;-76
2024/02/21 09:38:18;;;;;;;2.28;1.30;;;;;;;;;;10560428;28;20123;-77
2024/02/21 09:43:21;;;;;;;4.50;1.42;;;;;;;;;;10576553;27;20044;-78
2024/02/21 09:48:31;;;;;;;1.58;1.40;;;;;;;;;;10561370;27;20066;-77
2024/02/21 09:53:41;;;;;;;2.00;1.30;;;;;;;;;;10568280;27;20043;-76
2024/02/21 09:58:50;;;;;;;1.80;1.58;;;;;;;;;;10526363;28;20101;-76
2024/02/21 10:03:53;;;;;;;1.70;1.27;;;;;;;;;;10529172;28;20032;-76
2024/02/21 10:09:00;;;;;;;1.73;1.20;;;;;;;;;;10518559;28;20040;-77
2024/02/21 10:14:05;;;;;;;1.73;1.33;;;;;;;;;;10517768;28;20042;-77
2024/02/21 10:19:07;;;;;;;1.73;1.23;;;;;;;;;;10527008;28;20070;-77
2024/02/21 10:24:13;;;;;;;1.10;1.10;;;;;;;;;;10518829;28;20493;-75
2024/02/21 10:29:15;;;;;;;1.63;1.30;;;;;;;;;;10519601;28;20471;-76
2024/02/21 10:34:19;;;;;;;1.30;1.20;;;;;;;;;;10511333;28;20437;-76
2024/02/21 10:39:23;;;;;;;1.60;1.23;;;;;;;;;;10526750;28;20043;-76
2024/02/21 10:44:27;;;;;;;1.92;1.17;;;;;;;;;;10515818;28;20383;-76
2024/02/21 10:49:31;;;;;;;2.20;1.30;;;;;;;;;;10518716;28;20133;-76
2024/02/21 10:54:45;;;;;;;1.45;1.20;;;;;;;;;;10525378;28;20042;-76
2024/02/21 10:59:49;;;;;;;1.52;1.30;;;;;;;;;;10558469;28;20038;-75
2024/02/21 11:04:53;;;;;;;1.85;0.90;;;;;;;;;;10564110;28;20100;-74
2024/02/21 11:09:59;;;;;;;0.90;0.90;;;;;;;;;;10555963;28;20111;-77
2024/02/21 11:15:08;;;;;;;1.40;1.30;;;;;;;;;;10557628;28;20032;-77
2024/02/21 11:20:12;;;;;;;1.20;1.17;;;;;;;;;;10560150;28;20031;-75
2024/02/21 11:25:22;;;;;;;2.15;1.10;;;;;;;;;;10561353;28;20459;-76
2024/02/21 11:30:27;;;;;;;1.83;1.15;;;;;;;;;;10570937;28;20096;-76
2024/02/21 11:35:33;;;;;;;1.05;0.93;;;;;;;;;;10560357;28;20500;-76
2024/02/21 11:40:39;;;;;;;2.92;0.70;;;;;;;;;;10580678;27;20105;-76
2024/02/21 11:45:42;;;;;;;1.08;0.60;;;;;;;;;;10557677;28;20127;-75
2024/02/21 11:50:53;;;;;;;1.08;0.80;;;;;;;;;;10567178;27;20064;-75
2024/02/21 11:55:57;;;;;;;1.65;0.73;;;;;;;;;;10571588;27;20024;-76
2024/02/21 12:01:02;;;;;;;0.70;0.52;;;;;;;;;;10567984;27;20044;-77
2024/02/21 12:06:07;;;;;;;4.03;0.82;;;;;;;;;;10573029;27;20063;-75
2024/02/21 12:11:19;;;;;;;1.48;0.90;;;;;;;;;;10570688;27;20044;-74
2024/02/21 12:16:22;;;;;;;1.50;1.00;;;;;;;;;;10568130;27;20097;-75
2024/02/21 12:21:24;;;;;;;;;;;;;;;;;;10566163;27;20047;-76
2024/02/21 12:26:28;;;;;;;2.35;1.10;;;;;;;;;;10576796;27;19973;-77
2024/02/21 12:31:31;;;;;;;1.02;1.00;;;;;;;;;;10550993;27;20040;-77
2024/02/21 12:36:34;;;;;;;0.93;0.80;;;;;;;;;;10575888;27;20048;-76
2024/02/21 12:41:39;;;;;;;0.80;0.80;;;;;;;;;;10565560;27;20039;-76
2024/02/21 12:46:42;;;;;;;1.23;1.13;;;;;;;;;;10566823;27;20059;-76
2024/02/21 12:51:46;;;;;;;1.08;0.80;;;;;;;;;;10564047;27;20047;-75
2024/02/21 12:56:50;;;;;;;0.70;0.70;;;;;;;;;;10575316;27;20048;-76
2024/02/21 13:01:53;;;;;;;0.70;0.70;;;;;;;;;;10569712;27;20064;-76
2024/02/21 13:06:56;;;;;;;1.98;0.80;;;;;;;;;;10556006;27;20458;-76
2024/02/21 13:12:02;;;;;;;0.95;0.65;;;;;;;;;;10566539;27;20129;-76
2024/02/21 13:17:05;;;;;;;0.68;0.68;;;;;;;;;;10568464;27;20054;-76
2024/02/21 13:22:08;;;;;;;0.60;0.60;;;;;;;;;;10564931;27;20118;-75
2024/02/21 13:27:13;;;;;;;1.27;0.73;;;;;;;;;;10574526;27;20084;-75
2024/02/21 13:32:16;;;;;;;0.60;0.60;;;;;;;;;;10565691;27;20429;-76
2024/02/21 13:37:19;;;;;;;1.35;0.50;;;;;;;;;;10562707;27;20062;-75
2024/02/21 13:42:23;;;;;;;;;;;;;;;;;;10574079;27;20040;-76
2024/02/21 13:47:28;;;;;;;0.68;0.50;;;;;;;;;;10541419;28;19998;-76
2024/02/21 13:52:30;;;;;;;2.17;0.65;;;;;;;;;;10560048;28;20040;-75
2024/02/21 13:57:33;;;;;;;0.60;0.60;;;;;;;;;;10566531;27;20044;-75
2024/02/21 14:02:38;;;;;;;0.68;0.63;;;;;;;;;;10560307;27;20063;-76
2024/02/21 14:07:41;;;;;;;2.78;0.73;;;;;;;;;;10563148;27;20048;-75
2024/02/21 14:12:44;;;;;;;0.82;0.60;;;;;;;;;;10569190;27;20046;-75
2024/02/21 14:17:48;;;;;;;1.70;0.43;;;;;;;;;;10560063;28;20043;-77
2024/02/21 14:22:51;;;;;;;3.40;0.57;;;;;;;;;;10560207;28;20044;-75
2024/02/21 14:27:54;;;;;;;1.17;0.50;;;;;;;;;;10560663;28;20043;-74
2024/02/21 14:32:58;;;;;;;2.63;0.43;;;;;;;;;;10566524;28;20054;-75
2024/02/21 14:38:02;;;;;;;0.80;0.47;;;;;;;;;;10569380;28;20093;-76
2024/02/21 14:43:05;;;;;;;;;;;;;;;;;;10566414;28;20490;-74
2024/02/21 14:48:09;;;;;;;1.20;0.52;;;;;;;;;;10560430;28;19927;-74
2024/02/21 14:53:12;;;;;;;3.58;0.60;;;;;;;;;;10566544;28;20039;-75
2024/02/21 14:58:16;;;;;;;1.90;0.60;;;;;;;;;;10566243;27;20040;-75
2024/02/21 15:03:21;;;;;;;4.95;0.90;;;;;;;;;;10560473;28;20531;-76
2024/02/21 15:08:23;;;;;;;1.08;0.70;;;;;;;;;;10558561;28;20054;-76
2024/02/21 15:13:26;;;;;;;4.40;0.73;;;;;;;;;;10566035;27;20043;-76
2024/02/21 15:18:33;;;;;;;1.60;0.52;;;;;;;;;;10568492;27;20127;-76
2024/02/21 15:23:36;;;;;;;3.55;0.98;;;;;;;;;;10580463;27;20050;-74
2024/02/21 15:28:39;;;;;;;1.02;0.40;;;;;;;;;;10572904;27;20084;-76
2024/02/21 15:33:43;;;;;;;1.00;0.43;;;;;;;;;;10562888;27;20063;-75
2024/02/21 15:38:46;;;;;;;2.50;0.60;;;;;;;;;;10577165;27;20469;-75
2024/02/21 15:43:50;;;;;;;0.95;0.70;;;;;;;;;;10570577;27;20650;-77
2024/02/21 15:48:54;;;;;;;3.55;0.80;;;;;;;;;;10543046;27;20040;-74
2024/02/21 15:53:59;;;;;;;1.30;0.75;;;;;;;;;;10578423;27;20048;-74
2024/02/21 15:59:01;;;;;;;4.07;0.70;;;;;;;;;;10580210;27;20511;-76
2024/02/21 16:04:06;;;;;;;2.20;0.88;;;;;;;;;;10569251;27;20119;-75
2024/02/21 16:09:10;;;;;;;1.52;0.68;;;;;;;;;;10576527;27;20051;-75
2024/02/21 16:14:13;;;;;;;4.38;1.17;;;;;;;;;;10563086;27;20073;-77
2024/02/21 16:19:17;;;;;;;3.10;0.80;;;;;;;;;;10577280;28;20604;-75
2024/02/21 16:24:20;;;;;;;1.75;0.65;;;;;;;;;;10582025;27;20118;-76
2024/02/21 16:29:24;;;;;;;3.63;0.85;;;;;;;;;;10573297;27;20043;-74
2024/02/21 16:34:28;;;;;;;3.60;1.10;;;;;;;;;;10565318;28;20496;-76
2024/02/21 16:39:31;;;;;;;2.58;0.80;;;;;;;;;;10580314;27;20063;-75
2024/02/21 16:44:35;;;;;;;5.13;1.20;;;;;;;;;;10571435;27;20042;-76
2024/02/21 16:49:39;;;;;;;4.72;1.40;;;;;;;;;;10561619;28;20044;-75
2024/02/21 16:54:42;;;;;;;2.53;1.13;;;;;;;;;;10568073;27;20047;-74
2024/02/21 16:59:46;;;;;;;2.97;1.07;;;;;;;;;;10565002;27;20067;-76
2024/02/21 17:04:51;;;;;;;6.30;1.70;;;;;;;;;;10571589;27;20485;-75
2024/02/21 17:09:54;;;;;;;2.20;1.05;;;;;;;;;;10559459;27;20496;-76
2024/02/21 17:14:57;;;;;;;4.63;2.03;;;;;;;;;;10568353;27;20121;-77
2024/02/21 17:20:02;;;;;;;6.95;1.58;;;;;;;;;;10567264;27;20112;-75
2024/02/21 17:25:09;;;;;;;3.22;1.15;;;;;;;;;;10561357;27;20106;-76
2024/02/21 17:30:12;;;;;;;3.53;1.13;;;;;;;;;;10564751;27;20043;-76
2024/02/21 17:35:17;;;;;;;2.40;1.67;;;;;;;;;;10551796;27;20116;-75
2024/02/21 17:40:20;;;;;;;5.57;2.20;;;;;;;;;;10576479;27;20112;-76
2024/02/21 17:45:22;;;;;;;6.40;2.03;;;;;;;;;;10565736;27;20580;-77
2024/02/21 17:50:26;;;;;;;5.30;2.05;;;;;;;;;;10565348;27;20138;-78
2024/02/21 17:55:29;;;;;;;3.03;1.40;;;;;;;;;;10572435;27;20055;-74
2024/02/21 18:00:32;;;;;;;2.92;1.30;;;;;;;;;;10579193;27;20123;-74
2024/02/21 18:05:37;;;;;;;5.53;2.33;;;;;;;;;;10573892;27;20160;-74
2024/02/21 18:10:40;;;;;;;8.35;2.70;;;;;;;;;;10567428;27;20039;-75
2024/02/21 18:15:43;;;;;;;3.78;1.85;;;;;;;;;;10575383;27;20067;-75
2024/02/21 18:20:49;;;;;;;5.63;1.92;;;;;;;;;;10576826;27;20512;-76
2024/02/21 18:25:53;;;;;;;1.90;1.25;;;;;;;;;;10568138;28;20435;-76
2024/02/21 18:30:56;;;;;;;7.13;2.10;;;;;;;;;;10559552;28;20047;-75
2024/02/21 18:36:01;;;;;;;1.20;0.60;;;;;;;;;;10565617;28;20051;-76
2024/02/21 18:41:04;;;;;;;2.90;1.48;;;;;;;;;;10559445;28;20093;-76
2024/02/21 18:46:08;;;;;;;3.77;1.60;;;;;;;;;;10569817;28;20036;-76
2024/02/21 18:51:12;;;;;;;3.38;1.92;;;;;;;;;;10563880;27;20487;-75
2024/02/21 18:56:15;;;;;;;6.20;2.15;;;;;;;;;;10564723;27;20028;-75
2024/02/21 19:01:20;;;;;;;4.77;2.00;;;;;;;;;;10578420;27;20070;-75
2024/02/21 19:06:24;;;;;;;6.57;2.30;;;;;;;;;;10571102;27;20048;-76
2024/02/21 19:11:27;;;;;;;6.28;1.73;;;;;;;;;;10584764;27;20618;-75
2024/02/21 19:16:30;;;;;;;5.43;1.60;;;;;;;;;;10571317;27;20040;-74
2024/02/21 19:21:35;;;;;;;6.45;2.30;;;;;;;;;;10577726;27;20131;-74
2024/02/21 19:26:39;;;;;;;5.53;2.20;;;;;;;;;;10569876;27;20113;-75
2024/02/21 19:31:41;;;;;;;4.03;2.00;;;;;;;;;;10569663;27;20074;-75
2024/02/21 19:36:46;;;;;;;9.18;2.22;;;;;;;;;;10567740;27;20032;-74
2024/02/21 19:41:49;;;;;;;10.70;2.53;;;;;;;;;;10584429;27;20040;-74
2024/02/21 19:46:52;;;;;;;8.65;2.17;;;;;;;;;;10569618;27;20051;-75
2024/02/21 19:51:57;;;;;;;47.50;11.98;;;;;;;;;;10575492;27;20522;-76
2024/02/21 19:57:00;;;;;;;9.18;2.55;;;;;;;;;;10575991;27;20062;-75
2024/02/21 20:02:02;;;;;;;26.60;7.90;;;;;;;;;;10574833;27;20035;-77
2024/02/21 20:07:07;;;;;;;8.35;3.15;;;;;;;;;;10577187;27;20043;-75
2024/02/21 20:12:10;;;;;;;12.50;4.70;;;;;;;;;;10572864;27;20040;-76
2024/02/21 20:17:13;;;;;;;15.25;5.40;;;;;;;;;;10570527;27;20044;-77
2024/02/21 20:22:17;;;;;;;4.63;1.90;;;;;;;;;;10573661;27;20741;-76
2024/02/21 20:27:23;;;;;;;3.47;1.70;;;;;;;;;;10582842;27;20038;-75
2024/02/21 20:32:28;;;;;;;6.40;2.60;;;;;;;;;;10569847;27;20059;-75
2024/02/21 20:37:32;;;;;;;3.90;1.45;;;;;;;;;;10567453;27;20044;-75
2024/02/21 20:42:35;;;;;;;10.88;3.88;;;;;;;;;;10566745;27;20044;-76
2024/02/21 20:47:38;;;;;;;5.67;3.03;;;;;;;;;;10574430;27;20041;-75
2024/02/21 20:52:42;;;;;;;7.95;2.90;;;;;;;;;;10563215;27;20571;-75
2024/02/21 20:57:45;;;;;;;;;;;;;;;;;;10567024;27;20034;-74
2024/02/21 21:02:49;;;;;;;6.57;2.90;;;;;;;;;;10559416;27;20373;-75
2024/02/21 21:07:52;;;;;;;;;;;;;;;;;;10554728;27;20042;-74
2024/02/21 21:12:56;;;;;;;7.10;2.88;;;;;;;;;;10570733;28;19923;-75
2024/02/21 21:17:59;;;;;;;7.00;2.70;;;;;;;;;;10567870;27;20043;-75
2024/02/21 21:23:02;;;;;;;5.93;2.78;;;;;;;;;;10562830;28;20048;-75
2024/02/21 21:28:08;;;;;;;7.32;3.08;;;;;;;;;;10563246;28;20122;-73
2024/02/21 21:33:11;;;;;;;4.57;2.15;;;;;;;;;;10575311;27;20070;-73
2024/02/21 21:38:14;;;;;;;7.13;2.40;;;;;;;;;;10569312;28;20048;-75
2024/02/21 21:43:18;;;;;;;9.02;2.50;;;;;;;;;;10569604;27;20036;-75
2024/02/21 21:48:21;;;;;;;;;;;;;;;;;;10558086;27;20473;-75
2024/02/21 21:53:24;;;;;;;4.40;1.90;;;;;;;;;;10574456;27;19924;-74
2024/02/21 21:58:28;;;;;;;3.47;1.92;;;;;;;;;;10555457;27;20044;-76
2024/02/21 22:03:31;;;;;;;2.97;1.42;;;;;;;;;;10563253;27;20125;-76
2024/02/21 22:08:35;;;;;;;3.30;1.80;;;;;;;;;;10568346;27;20044;-76
2024/02/21 22:13:39;;;;;;;7.22;2.63;;;;;;;;;;10558869;27;20040;-76
2024/02/21 22:18:42;;;;;;;3.28;0.95;;;;;;;;;;10572306;27;20050;-78
2024/02/21 22:23:45;;;;;;;2.77;1.50;;;;;;;;;;10559816;28;20051;-76
2024/02/21 22:28:50;;;;;;;4.47;1.80;;;;;;;;;;10571477;27;20338;-75
2024/02/21 22:33:55;;;;;;;3.30;1.60;;;;;;;;;;10564326;28;20292;-74
2024/02/21 22:38:58;;;;;;;11.82;3.33;;;;;;;;;;10563091;28;20039;-75
2024/02/21 22:44:03;;;;;;;6.32;1.75;;;;;;;;;;10565276;28;20097;-75
2024/02/21 22:49:05;;;;;;;2.40;1.42;;;;;;;;;;10563855;28;20031;-75
2024/02/21 22:54:09;;;;;;;4.43;1.70;;;;;;;;;;10563815;28;20039;-75
2024/02/21 22:59:13;;;;;;;5.78;2.15;;;;;;;;;;10567071;28;20032;-76
2024/02/21 23:04:16;;;;;;;;;;;;;;;;;;10564842;28;20081;-75
2024/02/21 23:09:18;;;;;;;4.85;2.20;;;;;;;;;;10568429;28;20422;-75
2024/02/21 23:14:23;;;;;;;2.25;1.50;;;;;;;;;;10565962;28;20404;-76
2024/02/21 23:19:25;;;;;;;2.30;0.95;;;;;;;;;;10564524;28;20075;-75
2024/02/21 23:24:28;;;;;;;2.67;1.30;;;;;;;;;;10567769;28;20113;-74
2024/02/21 23:29:32;;;;;;;1.60;1.15;;;;;;;;;;10568564;28;20036;-74
2024/02/21 23:34:35;;;;;;;2.72;1.20;;;;;;;;;;10565223;27;20262;-74
2024/02/21 23:39:38;;;;;;;2.40;1.10;;;;;;;;;;10566799;28;20067;-76
2024/02/21 23:44:43;;;;;;;5.00;1.75;;;;;;;;;;10563585;28;20180;-75
2024/02/21 23:49:46;;;;;;;5.10;1.67;;;;;;;;;;10562475;27;20051;-75
2024/02/21 23:54:49;;;;;;;6.13;2.13;;;;;;;;;;10575073;27;20056;-74
2024/02/21 23:59:53;;;;;;;5.68;1.83;;;;;;;;;;10574610;27;20100;-74
